SBCZ/CZS METAR and TAF weather

Enter ICAO airport designator
Station Type Date Time Source
SBCZ METAR 2020/07/05 21:00 UTC NOAA

SBCZ 052100Z 00000KT 9999 SCT030 FEW035TCU 30/22 Q1010


Station Type Date Time Source
SBCZ Decoded METAR 2020/07/05 21:00 UTC NOAA

Cruzeiro Do Sul, Brazil (SBCZ) 07-38S 072-40W
Jul 05, 2020 - 05:00 PM EDT / 2020.07.05 2100 UTC
Wind: Calm:0
Visibility: greater than 7 mile(s):0
Sky conditions: partly cloudy
Weather: Towering cumulus clouds observed
Temperature: 86 F (30 C)
Heat index: 91.8 F (33.2 C):1
Dew Point: 71 F (22 C)
Relative Humidity: 62%
Pressure (altimeter): 29.83 in. Hg (1010 hPa)
ob: SBCZ 052100Z 00000KT 9999 SCT030 FEW035TCU 30/22 Q1010
cycle: 21

Station Type Date Time Source
SBCZ TAF 2019/09/19 12:12 UTC NOAA

TAF SBCZ 190900Z 1912/2012 27005KT 9999 FEW020 FEW025TCU TX34/1919Z TN23/2006Z PROB30
TEMPO 1912/1916 4000 TSRA BKN020 FEW025CB
BECMG 1916/1918 27005KT
BECMG 1923/2001 00000KT CAVOK PROB30 2006/2012 4000 BR
RMK PGZ

Example: see airport list